Time;durP1;ratioP1;P1;durP2;ratioP2;P2;SDS_P1;SDS_P2;PMS_P1;PMS_P2;Temp;Humidity;BMP_temperature;BMP_pressure;BME280_temperature;BME280_humidity;BME280_pressure;Samples;Min_cycle;Max_cycle;Signal;HPM_P1;HPM_P2
2022/08/20 00:00:07;;;;;;;40.53;19.17;;;19.50;99.90;;;;;;5074739;28;20225;-64
2022/08/20 00:02:39;;;;;;;43.37;20.40;;;19.40;99.90;;;;;;5074454;28;20286;-63
2022/08/20 00:05:08;;;;;;;48.30;22.30;;;19.40;99.90;;;;;;5074829;28;20212;-64
2022/08/20 00:07:35;;;;;;;39.93;19.77;;;19.50;99.90;;;;;;5074281;28;20765;-64
2022/08/20 00:10:01;;;;;;;40.57;19.97;;;19.50;99.90;;;;;;5074745;28;20205;-64
2022/08/20 00:12:28;;;;;;;38.20;19.63;;;19.50;99.90;;;;;;5074476;28;20229;-64
2022/08/20 00:14:55;;;;;;;38.07;19.93;;;19.50;99.90;;;;;;5074227;28;20212;-64
2022/08/20 00:17:21;;;;;;;41.03;19.30;;;19.50;99.90;;;;;;5074436;28;20567;-63
2022/08/20 00:19:48;;;;;;;42.27;19.50;;;19.60;99.90;;;;;;5074318;28;20604;-64
2022/08/20 00:22:16;;;;;;;39.23;19.27;;;19.60;99.90;;;;;;5073585;28;20233;-62
2022/08/20 00:24:43;;;;;;;36.53;19.80;;;19.60;99.90;;;;;;5074375;28;20250;-61
2022/08/20 00:27:09;;;;;;;45.80;22.67;;;19.60;99.90;;;;;;5073797;28;20212;-62
2022/08/20 00:29:36;;;;;;;32.77;17.37;;;19.40;99.90;;;;;;5074013;28;20663;-61
2022/08/20 00:32:03;;;;;;;42.57;20.47;;;19.40;99.90;;;;;;5074058;28;20224;-62
2022/08/20 00:34:30;;;;;;;36.80;18.27;;;19.20;99.90;;;;;;5074080;28;20205;-61
2022/08/20 00:36:57;;;;;;;33.67;18.47;;;19.10;99.90;;;;;;5073889;28;20201;-62
2022/08/20 00:39:25;;;;;;;41.57;19.23;;;19.10;99.90;;;;;;5073723;28;20591;-62
2022/08/20 00:41:51;;;;;;;39.97;21.27;;;19.00;99.90;;;;;;5073956;28;20209;-61
2022/08/20 00:44:21;;;;;;;45.27;21.37;;;19.00;99.90;;;;;;5074061;28;20291;-62
2022/08/20 00:46:49;;;;;;;40.63;20.87;;;19.00;99.90;;;;;;5073839;28;20210;-62
2022/08/20 00:49:23;;;;;;;43.40;22.03;;;19.00;99.90;;;;;;5073631;28;20212;-62
2022/08/20 00:51:54;;;;;;;44.53;21.27;;;19.10;99.90;;;;;;5073515;28;20333;-62
2022/08/20 00:54:27;;;;;;;40.77;20.97;;;19.00;99.90;;;;;;5073435;28;20205;-62
2022/08/20 00:56:56;;;;;;;41.60;22.30;;;19.10;99.90;;;;;;5073638;28;20591;-62
2022/08/20 00:59:27;;;;;;;44.10;21.20;;;19.10;99.90;;;;;;5073727;28;20231;-62
2022/08/20 01:01:54;;;;;;;51.70;24.07;;;19.10;99.90;;;;;;5073685;28;20259;-63
2022/08/20 01:04:21;;;;;;;39.47;21.43;;;19.10;99.90;;;;;;5073493;28;20209;-62
2022/08/20 01:06:47;;;;;;;47.73;22.60;;;19.10;99.90;;;;;;5073010;28;20205;-62
2022/08/20 01:09:14;;;;;;;45.00;21.53;;;19.10;99.90;;;;;;5073514;28;20196;-62
2022/08/20 01:11:42;;;;;;;43.77;21.87;;;19.20;99.90;;;;;;5073277;28;20213;-62
2022/08/20 01:14:30;;;;;;;39.83;21.27;;;19.10;99.90;;;;;;5073240;28;20267;-61
2022/08/20 01:17:02;;;;;;;43.73;21.60;;;19.10;99.90;;;;;;5072818;28;20212;-61
2022/08/20 01:19:33;;;;;;;41.17;21.07;;;19.10;99.90;;;;;;5072788;28;20233;-62
2022/08/20 01:22:00;;;;;;;40.63;21.50;;;19.10;99.90;;;;;;5072965;28;20212;-62
2022/08/20 01:24:33;;;;;;;40.33;20.83;;;19.10;99.90;;;;;;5073067;28;20250;-61
2022/08/20 01:27:03;;;;;;;42.17;22.33;;;19.10;99.90;;;;;;5072603;28;20208;-62
2022/08/20 01:29:36;;;;;;;40.20;21.10;;;19.00;99.90;;;;;;5072748;28;20259;-62
2022/08/20 01:32:04;;;;;;;43.90;21.30;;;19.00;99.90;;;;;;5073361;28;20228;-62
2022/08/20 01:34:32;;;;;;;45.00;21.47;;;19.00;99.90;;;;;;5075436;28;20258;-64
2022/08/20 01:36:59;;;;;;;41.67;21.37;;;18.90;99.90;;;;;;5074412;28;20909;-64
2022/08/20 01:39:29;;;;;;;41.07;22.20;;;18.90;99.90;;;;;;5073689;28;20220;-64
2022/08/20 01:42:06;;;;;;;44.43;21.37;;;18.90;99.90;;;;;;5072747;28;20201;-64
2022/08/20 01:44:33;;;;;;;43.40;21.03;;;19.00;99.90;;;;;;5072706;28;20531;-64
2022/08/20 01:47:11;;;;;;;41.03;20.57;;;19.00;99.90;;;;;;5072476;28;20243;-64
2022/08/20 01:49:42;;;;;;;38.30;20.20;;;19.00;99.90;;;;;;5072589;28;20204;-64
2022/08/20 01:52:12;;;;;;;45.33;21.13;;;19.00;99.90;;;;;;5072391;28;20791;-64
2022/08/20 01:54:39;;;;;;;41.93;21.33;;;19.00;99.90;;;;;;5072376;28;20225;-64
2022/08/20 01:57:12;;;;;;;41.07;21.00;;;19.10;99.90;;;;;;5072626;28;20205;-65
2022/08/20 01:59:40;;;;;;;44.60;21.63;;;19.10;99.90;;;;;;5072651;28;20228;-65
2022/08/20 02:02:07;;;;;;;42.70;20.67;;;19.00;99.90;;;;;;5072205;28;20228;-62
2022/08/20 02:04:35;;;;;;;38.07;20.97;;;19.00;99.90;;;;;;5072378;28;20251;-62
2022/08/20 02:07:05;;;;;;;38.53;20.93;;;19.00;99.90;;;;;;5071976;28;20212;-63
2022/08/20 02:09:34;;;;;;;41.07;21.13;;;19.10;99.90;;;;;;5072152;28;20209;-62
2022/08/20 02:12:01;;;;;;;41.00;21.27;;;19.10;99.90;;;;;;5072470;28;20212;-62
2022/08/20 02:14:30;;;;;;;36.40;20.67;;;19.10;99.90;;;;;;5072334;28;20244;-62
2022/08/20 02:16:58;;;;;;;39.43;20.63;;;19.00;99.90;;;;;;5071988;28;20208;-62
2022/08/20 02:19:34;;;;;;;41.20;21.40;;;19.00;99.90;;;;;;5071813;28;20328;-62
2022/08/20 02:22:08;;;;;;;41.63;21.20;;;19.10;99.90;;;;;;5071824;28;20257;-63
2022/08/20 02:24:35;;;;;;;37.30;20.70;;;19.10;99.90;;;;;;5072025;28;20663;-62
2022/08/20 02:27:01;;;;;;;38.57;21.73;;;19.10;99.90;;;;;;5071725;28;20671;-62
2022/08/20 02:29:29;;;;;;;35.37;20.77;;;19.10;99.90;;;;;;5071909;28;20259;-62
2022/08/20 02:31:56;;;;;;;41.27;21.30;;;19.00;99.90;;;;;;5072107;28;20727;-62
2022/08/20 02:34:23;;;;;;;42.07;20.63;;;19.00;99.90;;;;;;5071725;28;20239;-62
2022/08/20 02:36:49;;;;;;;43.33;21.17;;;19.00;99.90;;;;;;5071909;28;20209;-62
2022/08/20 02:39:16;;;;;;;40.23;20.70;;;18.90;99.90;;;;;;5071892;28;20229;-62
2022/08/20 02:41:43;;;;;;;44.53;22.47;;;18.80;99.90;;;;;;5071917;28;20201;-63
2022/08/20 02:44:11;;;;;;;42.70;21.30;;;18.80;99.90;;;;;;5071695;28;20213;-65
2022/08/20 02:46:39;;;;;;;39.60;20.77;;;18.90;99.90;;;;;;5071135;28;20250;-65
2022/08/20 02:49:05;;;;;;;42.50;21.73;;;18.90;99.90;;;;;;5071630;28;20212;-63
2022/08/20 02:51:32;;;;;;;43.43;21.47;;;18.90;99.90;;;;;;5071865;28;20250;-62
2022/08/20 02:53:59;;;;;;;42.80;21.67;;;18.90;99.90;;;;;;5071958;28;20225;-62
2022/08/20 02:56:26;;;;;;;45.37;23.00;;;18.90;99.90;;;;;;5071587;28;20212;-62
2022/08/20 02:58:53;;;;;;;45.20;21.70;;;18.90;99.90;;;;;;5071632;28;20205;-62
2022/08/20 03:01:19;;;;;;;39.67;20.67;;;18.90;99.90;;;;;;5071520;28;20406;-62
2022/08/20 03:03:47;;;;;;;39.83;20.60;;;18.80;99.90;;;;;;5071603;28;20237;-62
2022/08/20 03:06:15;;;;;;;39.43;20.90;;;18.90;99.90;;;;;;5071506;28;20620;-62
2022/08/20 03:08:42;;;;;;;39.90;21.67;;;18.90;99.90;;;;;;5074624;28;20269;-62
2022/08/20 03:11:09;;;;;;;46.37;20.67;;;18.90;99.90;;;;;;5078252;28;20201;-62
2022/08/20 03:13:36;;;;;;;40.07;20.50;;;18.90;99.90;;;;;;5078466;28;20224;-62
2022/08/20 03:16:04;;;;;;;41.27;19.93;;;18.90;99.90;;;;;;5075029;28;20321;-62
2022/08/20 03:18:35;;;;;;;41.00;19.60;;;18.90;99.90;;;;;;5072510;28;20210;-61
2022/08/20 03:21:04;;;;;;;38.17;20.73;;;18.80;99.90;;;;;;5072171;28;20756;-62
2022/08/20 03:23:31;;;;;;;41.87;20.83;;;18.80;99.90;;;;;;5071556;28;20271;-62
2022/08/20 03:25:58;;;;;;;44.23;19.73;;;18.80;99.90;;;;;;5071206;28;20201;-62
2022/08/20 03:28:25;;;;;;;41.57;21.60;;;18.80;99.90;;;;;;5071297;28;20290;-62
2022/08/20 03:30:52;;;;;;;41.80;20.67;;;18.80;99.90;;;;;;5071277;28;20851;-62
2022/08/20 03:33:20;;;;;;;43.73;21.03;;;18.80;99.90;;;;;;5071449;28;20224;-62
2022/08/20 03:35:47;;;;;;;40.23;20.87;;;18.70;99.90;;;;;;5071517;28;20262;-64
2022/08/20 03:38:17;;;;;;;36.30;20.07;;;18.70;99.90;;;;;;5070823;28;20278;-65
2022/08/20 03:40:44;;;;;;;38.90;19.50;;;18.70;99.90;;;;;;5071280;28;20224;-62
2022/08/20 03:43:12;;;;;;;43.23;20.63;;;18.70;99.90;;;;;;5071189;28;20316;-62
2022/08/20 03:45:41;;;;;;;40.37;21.30;;;18.70;99.90;;;;;;5071404;28;20251;-62
2022/08/20 03:48:09;;;;;;;37.70;20.17;;;18.70;99.90;;;;;;5071202;28;20205;-62
2022/08/20 03:50:36;;;;;;;41.30;21.00;;;18.70;99.90;;;;;;5071242;28;20240;-62
2022/08/20 03:53:04;;;;;;;41.77;20.87;;;18.70;99.90;;;;;;5071104;28;20278;-62
2022/08/20 03:55:32;;;;;;;36.67;19.57;;;18.70;99.90;;;;;;5071100;28;20205;-62
2022/08/20 03:58:01;;;;;;;41.50;20.13;;;18.70;99.90;;;;;;5072837;28;20266;-62
2022/08/20 04:00:32;;;;;;;46.87;21.43;;;18.70;99.90;;;;;;5074691;28;20228;-62
2022/08/20 04:02:59;;;;;;;41.47;20.77;;;18.70;99.90;;;;;;5074450;28;20722;-62
2022/08/20 04:05:27;;;;;;;41.03;20.67;;;18.70;99.90;;;;;;5074647;28;20282;-62
2022/08/20 04:07:54;;;;;;;40.00;21.10;;;18.70;99.90;;;;;;5074236;28;20205;-62
2022/08/20 04:10:20;;;;;;;34.07;18.50;;;18.60;99.90;;;;;;5074416;28;20627;-62
2022/08/20 04:12:48;;;;;;;41.10;21.03;;;18.60;99.90;;;;;;5074440;28;20225;-62
2022/08/20 04:15:17;;;;;;;42.60;20.73;;;18.60;99.90;;;;;;5074449;28;20205;-62
2022/08/20 04:17:46;;;;;;;36.20;19.37;;;18.60;99.90;;;;;;5074225;28;20647;-62
2022/08/20 04:20:17;;;;;;;42.63;20.67;;;18.60;99.90;;;;;;5074233;28;20699;-62
2022/08/20 04:22:45;;;;;;;40.47;19.53;;;18.60;99.90;;;;;;5074141;28;20220;-62
2022/08/20 04:25:11;;;;;;;44.43;19.83;;;18.50;99.90;;;;;;5074216;28;20205;-62
2022/08/20 04:27:39;;;;;;;39.00;18.33;;;18.50;99.90;;;;;;5073760;28;20671;-62
2022/08/20 04:30:10;;;;;;;39.70;20.13;;;18.40;99.90;;;;;;5074197;28;20210;-62
2022/08/20 04:32:37;;;;;;;41.80;20.93;;;18.40;99.90;;;;;;5074057;28;20774;-62
2022/08/20 04:35:06;;;;;;;41.67;19.43;;;18.40;99.90;;;;;;5073937;28;20209;-62
2022/08/20 04:37:33;;;;;;;42.67;21.27;;;18.40;99.90;;;;;;5073996;28;20259;-62
2022/08/20 04:42:48;;;;;;;45.30;21.73;;;18.30;99.90;;;;;;5073833;28;20227;-62
2022/08/20 04:45:16;;;;;;;55.10;21.90;;;18.30;99.90;;;;;;5073750;28;20209;-62
2022/08/20 04:47:43;;;;;;;52.43;22.67;;;18.30;99.90;;;;;;5073725;28;20217;-62
2022/08/20 04:50:10;;;;;;;47.67;21.47;;;18.40;99.90;;;;;;5074091;28;20205;-62
2022/08/20 04:52:37;;;;;;;49.80;21.63;;;18.40;99.90;;;;;;5073717;28;20707;-62
2022/08/20 04:55:05;;;;;;;52.40;22.43;;;18.50;99.90;;;;;;5073704;28;20208;-62
2022/08/20 04:57:34;;;;;;;56.17;23.63;;;18.50;99.90;;;;;;5073608;28;20560;-63
2022/08/20 05:00:00;;;;;;;60.03;25.00;;;18.60;99.90;;;;;;5073335;28;20227;-62
2022/08/20 05:02:28;;;;;;;56.73;23.80;;;18.60;99.90;;;;;;5073404;28;20290;-63
2022/08/20 05:04:55;;;;;;;54.43;24.00;;;18.70;99.90;;;;;;5073342;28;20732;-62
2022/08/20 05:07:21;;;;;;;74.73;25.50;;;18.70;99.90;;;;;;5073129;28;20205;-63
2022/08/20 05:09:48;;;;;;;59.70;24.33;;;18.70;99.90;;;;;;5073015;28;20205;-62
2022/08/20 05:12:16;;;;;;;61.33;25.00;;;18.80;99.90;;;;;;5073225;28;20225;-62
2022/08/20 05:14:43;;;;;;;51.23;23.00;;;18.80;99.90;;;;;;5073189;28;20217;-62
2022/08/20 05:17:13;;;;;;;56.53;22.97;;;18.90;99.90;;;;;;5073042;28;20209;-62
2022/08/20 05:19:41;;;;;;;57.37;23.17;;;18.90;99.90;;;;;;5073000;28;20213;-62
2022/08/20 05:22:08;;;;;;;53.40;22.67;;;18.90;99.90;;;;;;5073080;28;20236;-63
2022/08/20 05:24:35;;;;;;;56.23;22.50;;;18.90;99.90;;;;;;5073081;28;20209;-62
2022/08/20 05:27:01;;;;;;;54.50;23.57;;;18.90;99.90;;;;;;5072707;28;20213;-62
2022/08/20 05:29:28;;;;;;;60.57;24.53;;;18.90;99.90;;;;;;5073030;28;20251;-63
2022/08/20 05:31:55;;;;;;;53.57;22.10;;;19.00;99.90;;;;;;5072947;28;20209;-62
2022/08/20 05:34:22;;;;;;;49.13;21.53;;;19.00;99.90;;;;;;5072804;28;20737;-65
2022/08/20 05:36:51;;;;;;;53.70;23.90;;;19.00;99.90;;;;;;5072615;28;20201;-64
2022/08/20 05:39:20;;;;;;;50.40;21.97;;;19.00;99.90;;;;;;5072806;28;20631;-65
2022/08/20 05:41:48;;;;;;;46.00;22.03;;;19.00;99.90;;;;;;5072590;28;20282;-63
2022/08/20 05:44:15;;;;;;;48.90;22.10;;;19.00;99.90;;;;;;5072640;28;20607;-62
2022/08/20 05:46:43;;;;;;;46.20;22.07;;;19.10;99.90;;;;;;5072205;28;20728;-62
2022/08/20 05:49:12;;;;;;;45.90;21.27;;;19.10;99.90;;;;;;5072571;28;20702;-62
2022/08/20 05:51:39;;;;;;;44.20;20.27;;;19.10;99.90;;;;;;5072459;28;20265;-63
2022/08/20 05:54:07;;;;;;;44.30;22.20;;;19.10;99.90;;;;;;5072492;28;20229;-65
2022/08/20 05:56:34;;;;;;;47.13;22.30;;;19.10;99.90;;;;;;5072014;28;20217;-62
2022/08/20 05:59:03;;;;;;;47.77;21.03;;;19.10;99.90;;;;;;5072524;28;20233;-65
2022/08/20 06:01:31;;;;;;;45.30;21.20;;;19.00;99.90;;;;;;5072845;28;20286;-62
2022/08/20 06:06:42;;;;;;;44.90;21.50;;;19.10;99.90;;;;;;5072136;28;20207;-62
2022/08/20 06:09:12;;;;;;;43.63;20.67;;;19.10;99.90;;;;;;5072495;28;20208;-62
2022/08/20 06:11:38;;;;;;;44.60;21.23;;;19.00;99.90;;;;;;5071955;28;20201;-62
2022/08/20 06:14:05;;;;;;;36.80;18.43;;;19.10;99.90;;;;;;5072350;28;20793;-62
2022/08/20 06:16:32;;;;;;;38.47;19.53;;;19.00;99.90;;;;;;5071998;28;20258;-62
2022/08/20 06:18:59;;;;;;;27.23;14.97;;;19.10;99.90;;;;;;5071973;28;20205;-57
2022/08/20 06:21:25;;;;;;;32.43;16.07;;;19.00;99.90;;;;;;5071137;28;20229;-61
2022/08/20 06:23:52;;;;;;;31.57;17.00;;;19.00;99.90;;;;;;5071881;28;20233;-62
2022/08/20 06:26:20;;;;;;;28.03;15.33;;;19.00;99.90;;;;;;5072008;28;20235;-61
2022/08/20 06:28:47;;;;;;;36.00;17.60;;;19.10;99.90;;;;;;5072102;28;20201;-61
2022/08/20 06:31:13;;;;;;;32.87;17.83;;;19.10;99.90;;;;;;5072064;28;20251;-58
2022/08/20 06:33:41;;;;;;;38.63;18.37;;;19.20;99.90;;;;;;5071844;28;20271;-63
2022/08/20 06:36:08;;;;;;;32.97;17.07;;;19.30;99.90;;;;;;5071540;28;20208;-59
2022/08/20 06:38:35;;;;;;;32.03;17.43;;;19.40;99.90;;;;;;5071933;28;20212;-61
2022/08/20 06:41:02;;;;;;;33.77;17.40;;;19.40;99.90;;;;;;5071618;28;20749;-59
2022/08/20 06:43:30;;;;;;;26.83;15.97;;;19.40;99.90;;;;;;5073486;28;20798;-61
2022/08/20 06:45:57;;;;;;;26.20;15.10;;;19.40;99.90;;;;;;5074720;28;20209;-64
2022/08/20 06:48:24;;;;;;;28.67;15.80;;;19.40;99.90;;;;;;5075518;28;20296;-60
2022/08/20 06:50:52;;;;;;;22.00;13.47;;;19.50;99.90;;;;;;5073519;28;20197;-62
2022/08/20 06:53:20;;;;;;;25.67;15.40;;;19.50;99.90;;;;;;5071673;28;20235;-64
2022/08/20 06:55:50;;;;;;;27.40;15.43;;;19.60;99.90;;;;;;5072122;28;20346;-62
2022/08/20 06:58:17;;;;;;;23.13;13.83;;;19.70;99.90;;;;;;5071643;28;20205;-63
2022/08/20 07:00:46;;;;;;;24.97;15.33;;;19.80;99.90;;;;;;5072042;28;20618;-60
2022/08/20 07:03:14;;;;;;;21.00;14.27;;;19.90;99.90;;;;;;5071861;28;20225;-61
2022/08/20 07:05:44;;;;;;;18.03;13.27;;;19.90;99.90;;;;;;5071824;28;20224;-63
2022/08/20 07:08:12;;;;;;;24.33;14.77;;;20.00;99.90;;;;;;5071723;28;20209;-58
2022/08/20 07:10:40;;;;;;;21.13;14.03;;;20.10;99.90;;;;;;5071581;28;20203;-63
2022/08/20 07:13:06;;;;;;;20.50;14.47;;;20.00;99.90;;;;;;5071439;28;20229;-58
2022/08/20 07:15:33;;;;;;;23.07;14.93;;;20.20;99.90;;;;;;5071224;28;20579;-61
2022/08/20 07:18:04;;;;;;;22.13;14.53;;;20.30;99.90;;;;;;5071540;28;20277;-58
2022/08/20 07:20:33;;;;;;;21.37;14.80;;;20.10;99.90;;;;;;5071228;28;20295;-58
2022/08/20 07:23:00;;;;;;;19.13;12.97;;;20.00;99.90;;;;;;5071428;28;20711;-60
2022/08/20 07:25:28;;;;;;;15.80;11.97;;;20.00;99.90;;;;;;5071565;28;20212;-57
2022/08/20 07:28:00;;;;;;;18.87;12.60;;;20.00;99.90;;;;;;5071232;28;20205;-63
2022/08/20 07:33:13;;;;;;;15.10;10.77;;;20.00;99.90;;;;;;5075417;28;20737;-66
2022/08/20 07:35:39;;;;;;;18.80;12.70;;;20.00;99.90;;;;;;5074969;28;20676;-63
2022/08/20 07:38:06;;;;;;;16.20;11.83;;;20.00;99.90;;;;;;5075100;28;20205;-60
2022/08/20 07:40:35;;;;;;;19.40;13.00;;;19.90;99.90;;;;;;5074829;28;20209;-61
2022/08/20 07:43:02;;;;;;;16.77;11.90;;;19.70;99.90;;;;;;5074924;28;20707;-61
2022/08/20 07:45:29;;;;;;;16.33;12.63;;;19.80;99.90;;;;;;5075143;28;20255;-61
2022/08/20 07:48:07;;;;;;;19.77;13.50;;;19.90;99.90;;;;;;5074965;28;20212;-61
2022/08/20 07:50:38;;;;;;;16.87;12.00;;;20.00;99.90;;;;;;5075101;28;20208;-60
2022/08/20 07:53:05;;;;;;;15.83;11.13;;;20.00;99.90;;;;;;5074689;28;20268;-61
2022/08/20 07:55:31;;;;;;;12.33;9.37;;;20.00;99.90;;;;;;5074970;28;20220;-60
2022/08/20 07:58:05;;;;;;;14.67;11.07;;;20.10;99.90;;;;;;5074744;28;20204;-61
2022/08/20 08:00:32;;;;;;;14.67;10.83;;;20.20;99.90;;;;;;5074814;28;20420;-60
2022/08/20 08:02:59;;;;;;;18.20;12.10;;;20.30;99.90;;;;;;5074681;28;20233;-63
2022/08/20 08:05:28;;;;;;;14.57;12.57;;;20.30;99.90;;;;;;5057461;28;20232;-66
2022/08/20 08:07:57;;;;;;;17.17;12.40;;;20.50;99.90;;;;;;5073296;28;20209;-60
2022/08/20 08:10:25;;;;;;;16.60;12.60;;;20.60;99.90;;;;;;5074485;28;20216;-66
2022/08/20 08:12:55;;;;;;;18.47;13.73;;;20.70;99.90;;;;;;5074920;28;20298;-64
2022/08/20 08:15:24;;;;;;;15.33;11.90;;;20.40;99.90;;;;;;5074252;28;20734;-64
2022/08/20 08:17:54;;;;;;;18.80;13.13;;;20.50;99.90;;;;;;5074113;28;20205;-64
2022/08/20 08:20:22;;;;;;;19.33;14.63;;;20.50;99.90;;;;;;5074302;28;20213;-63
2022/08/20 08:22:49;;;;;;;27.13;18.67;;;20.60;99.90;;;;;;5073842;28;20240;-64
2022/08/20 08:25:18;;;;;;;25.63;18.00;;;20.30;99.90;;;;;;5073863;28;20201;-64
2022/08/20 08:27:47;;;;;;;26.80;20.47;;;20.40;99.90;;;;;;5074038;28;20209;-64
2022/08/20 08:30:16;;;;;;;31.37;21.33;;;20.30;99.90;;;;;;5073714;28;20292;-64
2022/08/20 08:35:24;;;;;;;33.37;22.10;;;20.20;99.90;;;;;;5073330;28;20207;-64
2022/08/20 08:37:51;;;;;;;35.33;23.00;;;20.00;99.90;;;;;;5073280;28;20205;-64
2022/08/20 08:40:19;;;;;;;39.07;24.13;;;20.00;99.90;;;;;;5073544;28;20627;-64
2022/08/20 08:42:54;;;;;;;34.40;22.33;;;20.10;99.90;;;;;;5072897;28;20265;-63
2022/08/20 08:45:21;;;;;;;37.17;23.03;;;20.40;99.90;;;;;;5073798;28;20185;-64
2022/08/20 08:47:48;;;;;;;33.00;22.50;;;20.60;99.90;;;;;;5073259;28;20262;-63
2022/08/20 08:50:22;;;;;;;30.57;22.30;;;20.90;99.90;;;;;;5073666;28;20205;-64
2022/08/20 08:52:52;;;;;;;38.83;22.27;;;21.20;99.90;;;;;;5073321;28;20227;-64
2022/08/20 08:55:22;;;;;;;34.00;22.63;;;21.10;99.90;;;;;;5073049;28;20219;-64
2022/08/20 08:57:49;;;;;;;30.57;21.33;;;21.30;99.90;;;;;;5072861;28;20213;-64
2022/08/20 09:00:20;;;;;;;33.57;23.27;;;21.30;99.90;;;;;;5073333;28;20204;-64
2022/08/20 09:02:55;;;;;;;36.00;25.07;;;21.10;99.90;;;;;;5073273;28;20237;-64
2022/08/20 09:05:26;;;;;;;39.60;26.67;;;21.10;99.90;;;;;;5072917;28;20208;-64
2022/08/20 09:07:53;;;;;;;40.63;27.67;;;21.10;99.90;;;;;;5073067;28;20217;-64
2022/08/20 09:10:22;;;;;;;43.37;29.83;;;21.00;99.90;;;;;;5072917;28;20312;-64
2022/08/20 09:12:48;;;;;;;46.97;32.33;;;21.10;99.90;;;;;;5073121;28;20221;-63
2022/08/20 09:15:15;;;;;;;48.53;32.70;;;21.30;99.90;;;;;;5072753;28;20216;-64
2022/08/20 09:17:42;;;;;;;47.47;31.70;;;21.20;99.90;;;;;;5072895;28;20233;-63
2022/08/20 09:20:10;;;;;;;52.43;34.50;;;21.20;99.90;;;;;;5073164;28;20221;-63
2022/08/20 09:22:36;;;;;;;49.30;34.17;;;21.10;99.90;;;;;;5072353;28;20607;-66
2022/08/20 09:25:04;;;;;;;49.33;33.33;;;21.10;99.90;;;;;;5074214;28;20205;-65
2022/08/20 09:27:32;;;;;;;51.10;32.83;;;21.00;99.90;;;;;;5072539;28;20209;-65
2022/08/20 09:29:59;;;;;;;53.97;33.50;;;20.80;99.90;;;;;;5072820;28;20262;-62
2022/08/20 09:32:25;;;;;;;48.37;32.53;;;20.80;99.90;;;;;;5072466;28;20274;-65
2022/08/20 09:34:55;;;;;;;50.97;32.83;;;20.70;99.90;;;;;;5072498;28;20792;-62
2022/08/20 09:37:23;;;;;;;48.77;31.17;;;20.80;99.90;;;;;;5070047;28;20582;-62
2022/08/20 09:39:50;;;;;;;53.47;34.57;;;20.90;99.90;;;;;;5072547;28;20208;-62
2022/08/20 09:42:19;;;;;;;49.50;30.53;;;21.00;99.90;;;;;;5071735;28;20232;-67
2022/08/20 09:44:47;;;;;;;49.27;31.97;;;21.20;99.90;;;;;;5072124;28;20261;-66
2022/08/20 09:47:14;;;;;;;50.03;33.90;;;21.20;99.90;;;;;;5071747;28;20200;-64
2022/08/20 09:49:41;;;;;;;52.57;34.73;;;21.20;99.90;;;;;;5071885;28;20201;-65
2022/08/20 09:52:10;;;;;;;51.43;35.80;;;21.00;97.80;;;;;;5072652;28;20228;-65
2022/08/20 09:54:39;;;;;;;57.17;36.77;;;20.90;99.90;;;;;;5072453;28;20205;-62
2022/08/20 09:57:09;;;;;;;49.10;32.97;;;21.00;99.90;;;;;;5071791;28;20668;-65
2022/08/20 09:59:36;;;;;;;43.50;30.60;;;21.10;99.90;;;;;;5071883;28;20577;-61
2022/08/20 10:02:04;;;;;;;44.37;28.20;;;21.20;99.90;;;;;;5071760;28;20282;-63
2022/08/20 10:04:31;;;;;;;42.67;26.70;;;21.40;99.90;;;;;;5071616;28;20205;-61
2022/08/20 10:06:58;;;;;;;40.10;27.47;;;21.40;40.90;;;;;;5071537;28;20205;-66
2022/08/20 10:09:24;;;;;;;36.57;26.60;;;21.60;83.00;;;;;;5071760;28;20262;-66
2022/08/20 10:11:51;;;;;;;36.57;26.10;;;21.50;22.60;;;;;;5071812;28;20857;-66
2022/08/20 10:14:18;;;;;;;38.27;27.27;;;21.40;24.30;;;;;;5071745;28;20205;-65
2022/08/20 10:16:44;;;;;;;38.40;28.03;;;21.40;82.80;;;;;;5070898;28;20750;-66
2022/08/20 10:19:13;;;;;;;40.13;28.27;;;21.40;60.50;;;;;;5071439;28;20208;-66
2022/08/20 10:21:40;;;;;;;39.23;29.73;;;21.60;77.80;;;;;;5071209;28;20768;-66
2022/08/20 10:24:07;;;;;;;42.70;29.30;;;21.60;35.20;;;;;;5071201;28;20231;-66
2022/08/20 10:26:34;;;;;;;42.53;28.57;;;21.50;1.00;;;;;;5071076;28;20209;-66
2022/08/20 10:29:01;;;;;;;40.60;27.90;;;21.40;6.70;;;;;;5071458;28;20212;-66
2022/08/20 10:31:28;;;;;;;38.97;26.10;;;21.20;4.10;;;;;;5071294;28;20209;-65
2022/08/20 10:33:56;;;;;;;32.97;24.53;;;21.10;11.20;;;;;;5071639;28;20294;-66
2022/08/20 10:36:24;;;;;;;34.27;23.63;;;21.10;5.60;;;;;;5071090;28;20209;-66
2022/08/20 10:38:51;;;;;;;31.10;23.33;;;21.20;44.50;;;;;;5071537;28;20205;-66
2022/08/20 10:41:18;;;;;;;35.50;24.13;;;21.30;11.60;;;;;;5071415;28;20205;-62
2022/08/20 10:43:45;;;;;;;32.77;23.40;;;21.20;1.00;;;;;;5070215;28;20221;-64
2022/08/20 10:46:12;;;;;;;32.90;23.07;;;21.40;46.50;;;;;;5071899;28;20213;-64
2022/08/20 10:48:39;;;;;;;30.13;21.63;;;21.50;1.00;;;;;;5072018;28;20204;-64
2022/08/20 10:51:06;;;;;;;28.03;21.37;;;21.70;23.30;;;;;;5071714;28;20205;-65
2022/08/20 10:53:34;;;;;;;29.50;20.77;;;21.80;1.00;;;;;;5071668;28;20221;-64
2022/08/20 10:56:01;;;;;;;28.50;20.43;;;21.80;1.00;;;;;;5071560;28;20630;-64
2022/08/20 10:58:28;;;;;;;26.80;19.43;;;21.80;1.00;;;;;;5071482;28;20676;-64
2022/08/20 11:00:55;;;;;;;25.17;20.53;;;21.90;1.00;;;;;;5071968;28;20254;-64
2022/08/20 11:03:21;;;;;;;27.53;19.43;;;21.70;1.00;;;;;;5071524;28;20228;-64
2022/08/20 11:05:48;;;;;;;24.60;18.83;;;21.60;1.00;;;;;;5071615;28;20205;-64
2022/08/20 11:08:15;;;;;;;27.23;18.77;;;21.70;1.00;;;;;;5075395;28;20267;-64
2022/08/20 11:10:44;;;;;;;30.17;18.83;;;21.70;1.00;;;;;;5075890;28;20208;-64
2022/08/20 11:13:11;;;;;;;24.77;17.67;;;21.70;1.00;;;;;;5075504;28;20294;-64
2022/08/20 11:15:41;;;;;;;27.13;18.07;;;21.90;1.00;;;;;;5075785;28;20204;-64
2022/08/20 11:18:09;;;;;;;21.23;18.77;;;22.00;1.00;;;;;;5075855;28;20295;-64
2022/08/20 11:20:36;;;;;;;25.93;18.37;;;22.00;1.00;;;;;;5076558;28;20341;-64
2022/08/20 11:23:03;;;;;;;23.87;17.90;;;21.90;1.00;;;;;;5075364;28;20228;-64
2022/08/20 11:25:30;;;;;;;24.07;18.40;;;21.90;1.00;;;;;;5075062;28;20208;-64
2022/08/20 11:27:59;;;;;;;23.93;17.00;;;21.90;1.00;;;;;;5075218;28;20209;-64
2022/08/20 11:30:29;;;;;;;23.27;17.17;;;22.00;1.00;;;;;;5075649;28;20204;-64
2022/08/20 11:32:56;;;;;;;21.30;16.00;;;21.90;1.00;;;;;;5075551;28;20235;-64
2022/08/20 11:35:23;;;;;;;22.17;16.20;;;21.90;1.00;;;;;;5075295;28;20205;-65
2022/08/20 11:37:50;;;;;;;19.33;15.60;;;22.00;1.00;;;;;;5074956;28;20254;-65
2022/08/20 11:40:17;;;;;;;24.17;17.90;;;22.10;1.00;;;;;;5075186;28;20620;-65
2022/08/20 11:42:46;;;;;;;25.73;18.10;;;22.20;1.00;;;;;;5075047;28;20714;-65
2022/08/20 11:45:14;;;;;;;21.67;16.23;;;22.30;99.90;;;;;;5075136;28;20750;-65
2022/08/20 11:47:42;;;;;;;22.37;15.53;;;22.20;1.00;;;;;;5075163;28;20258;-65
2022/08/20 11:50:11;;;;;;;20.83;15.37;;;22.20;1.00;;;;;;5075531;28;20728;-64
2022/08/20 11:52:38;;;;;;;20.60;14.47;;;22.10;1.00;;;;;;5075961;28;20225;-64
2022/08/20 11:55:06;;;;;;;17.60;14.47;;;22.10;99.90;;;;;;5077966;28;20231;-64
2022/08/20 11:57:35;;;;;;;22.53;16.70;;;22.20;1.00;;;;;;5077089;28;20664;-65
2022/08/20 12:00:06;;;;;;;20.10;16.20;;;22.30;99.90;;;;;;5075290;28;20205;-65
2022/08/20 12:02:34;;;;;;;33.23;23.80;;;22.30;99.90;;;;;;5074820;28;20228;-65
2022/08/20 12:05:01;;;;;;;23.03;16.70;;;22.40;99.90;;;;;;5074624;28;20205;-65
2022/08/20 12:07:27;;;;;;;24.27;16.73;;;22.50;99.90;;;;;;5074645;28;20208;-65
2022/08/20 12:09:54;;;;;;;22.23;15.73;;;22.40;1.00;;;;;;5074784;28;20661;-64
2022/08/20 12:12:23;;;;;;;19.43;15.07;;;22.60;99.90;;;;;;5074625;28;20221;-64
2022/08/20 12:14:50;;;;;;;22.33;14.30;;;22.60;99.90;;;;;;5074889;28;20299;-65
2022/08/20 12:17:20;;;;;;;17.20;13.20;;;22.60;99.90;;;;;;5074055;28;20263;-65
2022/08/20 12:19:48;;;;;;;20.23;14.67;;;22.50;1.00;;;;;;5073779;28;20254;-65
2022/08/20 12:22:15;;;;;;;20.13;13.53;;;22.70;99.90;;;;;;5074537;28;20655;-65
2022/08/20 12:24:42;;;;;;;18.47;13.97;;;22.70;99.90;;;;;;5074478;28;20213;-65
2022/08/20 12:27:10;;;;;;;23.90;15.60;;;22.80;99.90;;;;;;5074337;28;20213;-65
2022/08/20 12:29:37;;;;;;;22.60;16.53;;;22.80;1.00;;;;;;5074239;28;20201;-65
2022/08/20 12:32:05;;;;;;;22.63;15.80;;;22.90;1.00;;;;;;5074238;28;20300;-65
2022/08/20 12:34:32;;;;;;;20.30;12.37;;;22.90;1.00;;;;;;5074147;28;20209;-65
2022/08/20 12:37:03;;;;;;;18.43;13.97;;;22.80;1.00;;;;;;5074167;28;20255;-65
2022/08/20 12:39:32;;;;;;;19.03;12.50;;;22.90;99.90;;;;;;5074305;28;20208;-65
2022/08/20 12:41:58;;;;;;;15.90;12.13;;;23.00;2.80;;;;;;5074067;28;20201;-65